Aviation Digital Data Service (ADDS)

Output produced by METARs form (0020 UTC 02 October 2014)
found at http://aviationweather.gov/adds/metars/
 
KDAG 012350Z AUTO 02008KT 10SM CLR 31/M01 A2987 RMK AO2 SLP094 T03061006 10317 20261 53001 TSNO
KDAG 012320Z 0200/0224 04011KT P6SM SKC 
     FM020200 VRB06KT P6SM SKC 
     FM021200 28007KT P6SM SKC 
     FM021800 06008KT P6SM SKC
       
KEDW 012358Z 05011KT 70SM CLR 30/M01 A2987 RMK AO2A SLP094 T02991010 10306 20234 53001
TAF AMD KEDW 0123/0224 06012G20KT 9999 SKC QNH2980INS 
     BECMG 0202/0203 VRB06KT 9999 SKC QNH2992INS 
     BECMG 0219/0220 06012KT 9999 SKC QNH3004INS TX31/0123Z TN10/0213Z AMD 012309
       
KVCV 020015Z AUTO 06012G17KT 10SM CLR 28/M01 A2992 RMK AO2
KONT 012353Z 25010KT 10SM CLR 30/12 A2977 RMK AO2 SLP066 T03000122 10317 20250 55000
KONT 012328Z 0200/0306 25008KT P6SM SKC 
     FM020300 VRB05KT P6SM SKC WS015/02020KT 
     FM021300 03015G25KT P6SM SKC 
     FM022100 04012KT P6SM SKC 
     FM030400 VRB05KT P6SM SKC
       
KNID 012356Z 34009KT 10SM CLR 30/M06 A2989 RMK AO2 SLP107 T03001061 10311 20267 55000 $
TAF KNID 0123/0223 VRB06KT 9999 SKC QNH2987INS 
     TEMPO 0123/0201 04015KT WND 350V090 T11/0213Z T31/0222Z LAST NO AMD AFT 0205/ NEXT 0215
       
KSNA 012353Z 22008KT 10SM CLR 26/16 A2978 RMK AO2 SLP083 T02560161 10272 20244 53003 $
KSNA 012328Z 0200/0224 22008KT P6SM SKC 
     FM020300 VRB04KT P6SM FEW010 
     FM021900 26008KT P6SM SKC
       
KSAN 012351Z 29006KT 10SM FEW020 23/16 A2980 RMK AO2 SLP091 T02330161 10239 20217 53001
KSAN 012328Z 0200/0306 28007KT P6SM FEW015 SCT020 
     FM020200 VRB04KT P6SM SCT015 
     FM020700 VRB03KT P6SM BKN008 
     FM021400 VRB04KT P6SM SCT010 
     FM021900 30007KT P6SM SKC 
     FM030200 VRB04KT P6SM SCT010
       
KNXP 012356Z AUTO 36011G17KT 10SM CLR 31/02 A2992 RMK AO2 SLP099 T03060022 10311 20267 53002
TAF KNXP 0121/0221 34007KT 9999 SKC QNH2981INS 
     BECMG 0204/0206 VRB06KT 9999 SKC QNH2982INS T32/0123Z T19/0213Z
       
KPSP 012353Z 01009KT 10SM CLR 37/01 A2976 RMK AO2 SLP073 T03670006 10367 20317 53003
KPSP 012328Z 0200/0224 VRB04KT P6SM SKC 
     FM020400 34010KT P6SM SKC 
     FM021900 VRB04KT P6SM SKC
       
KLAX 012353Z 27011KT 10SM FEW015 22/17 A2979 RMK AO2 SLP088 T02170167 10239 20211 53001
KLAX 012347Z 0200/0306 26012KT P6SM SKC 
     FM020400 VRB03KT P6SM SKC 
     FM021000 07004KT P6SM SKC 
     FM022000 26010KT P6SM SKC 
     FM030400 28005KT P6SM SKC
       
KCNO 012353Z 25012KT 10SM CLR 29/14 A2978 RMK AO2 SLP077 T02940144 10322 20244 53002
KSMO 012351Z 24008KT 10SM CLR 22/17 A2979 RMK AO2 SLP085 T02170167 10244 20217 55000
KLGB 012353Z 32009KT 10SM CLR 26/17 A2977 RMK AO2 SLP082 T02560172 10261 20228 55001 $
KLGB 012347Z 0200/0224 30008KT P6SM SKC 
     FM020500 VRB03KT P6SM SKC 
     FM021100 36005KT P6SM SKC 
     FM021800 VRB03KT P6SM SKC 
     FM022200 29008KT P6SM SKC
       
KVNY 012351Z 12007KT 10SM CLR 29/10 A2977 RMK AO2 SLP073 T02890100 10306 20250 53000 $
KVNY 012347Z 0200/0224 13007KT P6SM SKC 
     FM020200 VRB03KT P6SM SKC 
     FM021400 35012G18KT P6SM SKC 
     FM021800 02010KT P6SM SKC 
     FM022200 VRB06KT P6SM SKC
       
KBUR 012353Z 20009KT 10SM CLR 27/09 A2978 RMK AO2 SLP071 T02720089 10283 20239 53001
KBUR 012347Z 0200/0224 17007KT P6SM SKC 
     FM020300 VRB03KT P6SM SKC 
     FM022200 18008KT P6SM SKC
       
KBFL 012354Z 29008KT 240V310 10SM CLR 28/08 A2984 RMK AO2 SLP100 T02830083 10283 20233 55001
KBFL 012320Z 0200/0224 31010KT P6SM SKC 
     FM020300 VRB03KT P6SM SKC
       
KPMD 012353Z 08017KT 10SM CLR 29/M01 A2989 RMK AO2 SLP096 T02941011 10306 20244 55001
KPMD 012347Z 0200/0224 07010G18KT P6SM SKC 
     FM020200 12007KT P6SM SKC 
     FM020600 VRB03KT P6SM SKC 
     FM021800 06010G18KT P6SM SKC
       
KOXR 012351Z 25007KT 9SM CLR 22/17 A2978 RMK AO2 SLP084 T02220172 10239 20222 56003
KOXR 012347Z 0200/0224 27010KT P6SM SKC 
     FM020300 VRB03KT P6SM SKC 
     FM021000 06007KT P6SM SKC WS015/06030KT 
     FM021600 06014G22KT P6SM SKC 
     FM022100 28010KT P6SM SKC
       
KWJF 012356Z AUTO 08012G17KT 10SM CLR 29/M01 A2988 RMK AO2 SLP103 T02941006 10306 20250 55001 TSNO
KWJF 012347Z 0200/0224 06013KT P6SM SKC 
     FM020400 33006KT P6SM SKC 
     FM020800 VRB03KT P6SM SKC 
     FM021700 07011G19KT P6SM SKC
       
KCMA 012355Z 22006KT 10SM CLR 24/14 A2979 RMK AO2 SLP094 T02440144 10256 20233 55001
KFAT 012353Z 27007KT 10SM FEW080 30/09 A2985 RMK AO2 SLP106 FEW CU DSNT N T03000094 10306 20228 55002
KFAT 012320Z 0200/0224 VRB04KT P6SM SKC
       
KEED 012356Z AUTO 02018KT 10SM CLR 33/02 A2980 RMK AO2 SLP062 T03330017 10344 20289 53007
KEED 012320Z 0200/0224 02012G22KT P6SM SKC 
     FM020200 35011KT P6SM SKC 
     FM021600 02018G28KT P6SM SKC
       
KLSV 012358Z AUTO 05017KT 10SM CLR 28/M06 A2989 RMK AO2 SLP104 T02751064 10281 20261 50003
TAF KLSV 0117/0223 04015G30KT 9999 SKC 520009 QNH2982INS 
     BECMG 0201/0202 07009KT 9999 SKC QNH2987INS 
     BECMG 0217/0218 15012KT 9999 SKC QNH2982INS TX28/0123Z TN14/0211Z
       
KLAS 012356Z 06009KT 10SM CLR 28/M07 A2987 RMK AO2 SLP096 T02781067 10289 20261 51003
KLAS 012320Z 0200/0224 04010G20KT P6SM FEW120 
     FM020100 05008KT P6SM SKC 
     FM021000 35008KT P6SM SKC 
     FM021800 06008KT P6SM SKC
       
KHII 020015Z AUTO 32019G26KT 10SM CLR 33/03 A2976 RMK AO2
KIFP 020015Z AUTO 34018G21KT 10SM CLR 32/02 A2980 RMK AO2 PWINO